Time;durP1;ratioP1;P1;durP2;ratioP2;P2;SDS_P1;SDS_P2;PMS_P1;PMS_P2;Temp;Humidity;BMP_temperature;BMP_pressure;BME280_temperature;BME280_humidity;BME280_pressure;Samples;Min_cycle;Max_cycle;Signal;HPM_P1;HPM_P2
2021/07/13 00:00:38;;;;;;;10.45;9.40;;;23.80;83.80;;;;;;5051502;28;20045;-58
2021/07/13 00:03:06;;;;;;;11.43;10.35;;;23.70;84.40;;;;;;5051659;28;20032;-57
2021/07/13 00:05:33;;;;;;;11.77;10.57;;;23.60;85.10;;;;;;5051102;28;20033;-59
2021/07/13 00:07:59;;;;;;;10.60;9.50;;;23.40;85.10;;;;;;5051192;28;20033;-53
2021/07/13 00:10:27;;;;;;;12.27;10.02;;;23.20;86.40;;;;;;5051413;28;20553;-57
2021/07/13 00:12:54;;;;;;;11.32;10.27;;;23.00;86.90;;;;;;5051773;28;20037;-56
2021/07/13 00:15:25;;;;;;;12.13;9.65;;;22.90;87.20;;;;;;5051537;28;20048;-58
2021/07/13 00:17:53;;;;;;;11.40;9.75;;;22.70;87.40;;;;;;5051474;28;20179;-59
2021/07/13 00:20:19;;;;;;;11.35;9.98;;;22.70;87.90;;;;;;5050699;28;20040;-55
2021/07/13 00:22:45;;;;;;;10.90;9.80;;;22.70;88.70;;;;;;5038915;28;20167;-56
2021/07/13 00:25:12;;;;;;;10.95;9.82;;;22.80;88.70;;;;;;5052105;28;20131;-55
2021/07/13 00:27:38;;;;;;;10.18;9.25;;;22.90;88.40;;;;;;5051355;28;20033;-56
2021/07/13 00:30:06;;;;;;;10.43;9.32;;;22.90;88.40;;;;;;5050246;28;20057;-55
2021/07/13 00:32:32;;;;;;;10.50;9.40;;;23.00;88.40;;;;;;5047904;28;20083;-55
2021/07/13 00:34:57;;;;;;;12.07;10.45;;;23.00;88.70;;;;;;5054973;28;20464;-58
2021/07/13 00:37:23;;;;;;;12.00;9.30;;;23.10;88.90;;;;;;5055151;28;20048;-56
2021/07/13 00:39:49;;;;;;;11.38;9.20;;;23.10;88.70;;;;;;5054252;28;20052;-54
2021/07/13 00:42:15;;;;;;;12.00;9.75;;;23.10;88.80;;;;;;5062022;28;20501;-60
2021/07/13 00:44:42;;;;;;;10.57;9.55;;;23.10;88.40;;;;;;5054871;28;20082;-58
2021/07/13 00:47:09;;;;;;;10.60;9.60;;;23.10;88.40;;;;;;5054847;28;20068;-56
2021/07/13 00:49:36;;;;;;;11.18;10.18;;;23.20;88.60;;;;;;5054935;28;20037;-57
2021/07/13 00:52:01;;;;;;;10.90;9.80;;;23.20;89.00;;;;;;5054911;28;20094;-60
2021/07/13 00:54:29;;;;;;;11.50;9.50;;;23.10;89.30;;;;;;5054713;28;20438;-59
2021/07/13 00:56:55;;;;;;;10.70;9.60;;;23.10;89.10;;;;;;5056387;28;20029;-58
2021/07/13 00:59:21;;;;;;;11.13;9.82;;;23.10;89.30;;;;;;5053732;28;20033;-60
2021/07/13 01:01:47;;;;;;;18.23;15.43;;;23.00;89.60;;;;;;5055459;28;20132;-60
2021/07/13 01:04:14;;;;;;;14.80;13.00;;;23.10;89.90;;;;;;5058944;28;20087;-56
2021/07/13 01:06:57;;;;;;;11.15;10.05;;;23.00;89.90;;;;;;5057337;28;20120;-59
2021/07/13 01:09:43;;;;;;;14.07;9.88;;;23.00;89.90;;;;;;5058764;28;20040;-56
2021/07/13 01:12:31;;;;;;;10.73;9.52;;;23.10;89.90;;;;;;5054646;28;20130;-57
2021/07/13 01:15:00;;;;;;;13.30;10.43;;;23.10;89.80;;;;;;5054486;28;20028;-55
2021/07/13 01:17:51;;;;;;;12.43;10.93;;;23.00;90.00;;;;;;5054426;28;20139;-57
2021/07/13 01:20:36;;;;;;;11.95;10.75;;;23.00;89.70;;;;;;5054302;28;20132;-56
2021/07/13 01:23:32;;;;;;;12.88;10.70;;;22.90;89.60;;;;;;5042303;28;20043;-57
2021/07/13 01:26:06;;;;;;;11.82;10.65;;;22.90;89.70;;;;;;5022767;28;20039;-59
2021/07/13 01:28:58;;;;;;;12.38;11.13;;;22.70;89.90;;;;;;5043629;28;20455;-56
2021/07/13 01:31:25;;;;;;;11.73;10.45;;;22.70;89.80;;;;;;5054334;28;20029;-56
2021/07/13 01:33:59;;;;;;;12.50;11.02;;;22.60;90.00;;;;;;5054656;28;20024;-59
2021/07/13 01:36:49;;;;;;;12.98;11.68;;;22.50;90.20;;;;;;5054120;28;20047;-60
2021/07/13 01:39:17;;;;;;;12.27;10.93;;;22.50;90.40;;;;;;5062766;28;20381;-56
2021/07/13 01:41:47;;;;;;;11.35;10.27;;;22.60;90.00;;;;;;5054731;28;20037;-59
2021/07/13 01:44:14;;;;;;;12.73;11.43;;;22.60;90.00;;;;;;5052913;28;20041;-59
2021/07/13 01:46:40;;;;;;;12.50;11.20;;;22.60;90.10;;;;;;5051143;28;20519;-56
2021/07/13 01:49:07;;;;;;;12.65;11.32;;;22.50;90.40;;;;;;5053710;28;20314;-57
2021/07/13 01:51:33;;;;;;;11.52;10.18;;;22.50;90.20;;;;;;5054132;28;20120;-59
2021/07/13 01:54:07;;;;;;;11.82;10.63;;;22.40;90.40;;;;;;5054531;28;20072;-56
2021/07/13 01:56:34;;;;;;;13.73;12.15;;;22.40;90.20;;;;;;5049678;28;20485;-58
2021/07/13 01:59:00;;;;;;;12.55;11.20;;;22.30;90.40;;;;;;5053803;28;20041;-58
2021/07/13 02:01:27;;;;;;;13.00;11.70;;;22.30;90.20;;;;;;5053702;28;20531;-62
2021/07/13 02:03:54;;;;;;;12.77;11.55;;;22.30;90.30;;;;;;5053704;28;20638;-54
2021/07/13 02:06:24;;;;;;;13.77;11.63;;;22.20;90.20;;;;;;5053139;28;20064;-57
2021/07/13 02:08:57;;;;;;;12.70;11.50;;;22.20;90.20;;;;;;5053459;28;20043;-56
2021/07/13 02:11:24;;;;;;;13.13;11.82;;;22.20;90.20;;;;;;5052897;28;20036;-60
2021/07/13 02:13:50;;;;;;;14.65;12.18;;;22.20;90.20;;;;;;5052277;28;20025;-55
2021/07/13 02:16:18;;;;;;;12.90;11.48;;;22.20;90.20;;;;;;5053188;28;20033;-60
2021/07/13 02:18:43;;;;;;;12.88;11.55;;;22.20;90.10;;;;;;5053567;28;20496;-60
2021/07/13 02:21:09;;;;;;;13.13;11.60;;;22.20;90.10;;;;;;5048532;28;20051;-59
2021/07/13 02:23:36;;;;;;;13.80;11.40;;;22.20;90.20;;;;;;5044027;28;20112;-57
2021/07/13 02:26:04;;;;;;;11.90;10.75;;;22.30;90.30;;;;;;5056529;28;20091;-60
2021/07/13 02:28:35;;;;;;;13.48;12.18;;;22.30;90.30;;;;;;5055931;28;20033;-59
2021/07/13 02:31:23;;;;;;;12.40;11.20;;;22.30;90.40;;;;;;5048628;28;20296;-58
2021/07/13 02:33:55;;;;;;;12.23;11.07;;;22.20;90.40;;;;;;5052872;28;20048;-56
2021/07/13 02:36:28;;;;;;;12.25;11.02;;;22.20;90.50;;;;;;5039834;28;20021;-57
2021/07/13 02:38:56;;;;;;;13.73;11.15;;;22.10;90.60;;;;;;5046305;28;20061;-57
2021/07/13 02:41:23;;;;;;;12.30;11.10;;;22.10;90.90;;;;;;5047332;28;20052;-60
2021/07/13 02:43:50;;;;;;;12.55;11.32;;;21.90;90.90;;;;;;5052381;28;20060;-61
2021/07/13 02:46:17;;;;;;;13.15;11.70;;;21.80;91.10;;;;;;5052697;28;20049;-60
2021/07/13 02:48:43;;;;;;;12.10;10.90;;;21.90;91.20;;;;;;5052976;28;20490;-60
2021/07/13 02:51:12;;;;;;;14.10;11.32;;;21.90;91.30;;;;;;5052521;28;20053;-59
2021/07/13 02:53:38;;;;;;;12.40;11.20;;;21.80;91.20;;;;;;5053086;28;20041;-58
2021/07/13 02:56:07;;;;;;;13.02;11.68;;;21.80;91.10;;;;;;5052435;28;20119;-61
2021/07/13 02:58:33;;;;;;;12.77;11.43;;;21.80;91.20;;;;;;5053285;28;20048;-60
2021/07/13 03:00:59;;;;;;;13.35;11.90;;;21.80;91.40;;;;;;5052522;28;20500;-57
2021/07/13 03:03:25;;;;;;;14.45;12.45;;;21.80;91.50;;;;;;5052488;28;20044;-58
2021/07/13 03:05:53;;;;;;;13.45;12.05;;;21.80;91.40;;;;;;5052700;28;20029;-55
2021/07/13 03:08:23;;;;;;;12.70;11.40;;;21.80;91.30;;;;;;5052003;28;20086;-56
2021/07/13 03:10:51;;;;;;;12.77;11.38;;;21.90;91.30;;;;;;5052206;28;20045;-60
2021/07/13 03:13:21;;;;;;;13.10;11.20;;;21.90;91.30;;;;;;5052002;28;20040;-60
2021/07/13 03:15:49;;;;;;;13.05;11.13;;;21.80;91.20;;;;;;5038533;28;20384;-60
2021/07/13 03:18:15;;;;;;;12.50;11.20;;;21.80;91.30;;;;;;5052072;28;20086;-58
2021/07/13 03:20:43;;;;;;;12.55;11.25;;;21.80;91.40;;;;;;5047951;28;20056;-61
2021/07/13 03:23:09;;;;;;;12.68;11.30;;;21.60;91.60;;;;;;5048959;28;20087;-55
2021/07/13 03:25:39;;;;;;;11.95;10.73;;;21.50;91.80;;;;;;5052323;28;20079;-56
2021/07/13 03:28:05;;;;;;;12.65;11.35;;;21.50;91.90;;;;;;5052833;28;20037;-57
2021/07/13 03:30:32;;;;;;;12.30;11.20;;;21.50;91.90;;;;;;5052082;28;20045;-60
2021/07/13 03:32:58;;;;;;;13.65;12.27;;;21.50;92.00;;;;;;5052012;28;20087;-55
2021/07/13 03:35:25;;;;;;;13.10;11.85;;;21.40;92.00;;;;;;5051835;28;20099;-56
2021/07/13 03:37:52;;;;;;;13.05;11.75;;;21.40;92.10;;;;;;5051929;28;20040;-57
2021/07/13 03:40:18;;;;;;;13.60;11.57;;;21.40;92.10;;;;;;5059804;28;20388;-56
2021/07/13 03:42:45;;;;;;;14.23;12.30;;;21.30;92.20;;;;;;5057840;28;20041;-59
2021/07/13 03:45:15;;;;;;;12.63;11.43;;;21.20;92.30;;;;;;5051624;28;20423;-57
2021/07/13 03:47:48;;;;;;;12.85;11.43;;;21.20;92.40;;;;;;5043180;28;20124;-56
2021/07/13 03:50:15;;;;;;;20.60;11.82;;;21.20;92.80;;;;;;5052154;28;20021;-56
2021/07/13 03:52:42;;;;;;;14.05;11.73;;;21.20;92.60;;;;;;5051419;28;20116;-57
2021/07/13 03:55:08;;;;;;;13.15;11.73;;;21.30;92.50;;;;;;5054496;28;20029;-58
2021/07/13 03:57:33;;;;;;;14.52;11.80;;;21.40;92.30;;;;;;5056473;28;20045;-61
2021/07/13 03:59:59;;;;;;;13.77;12.38;;;21.40;92.20;;;;;;5052835;28;20033;-55
2021/07/13 04:02:24;;;;;;;13.93;12.48;;;21.50;92.10;;;;;;5052316;28;20079;-58
2021/07/13 04:04:50;;;;;;;13.73;12.32;;;21.40;92.30;;;;;;5052250;28;20045;-60
2021/07/13 04:07:15;;;;;;;13.55;11.80;;;21.40;92.20;;;;;;5038627;28;20033;-61
2021/07/13 04:09:41;;;;;;;12.85;11.45;;;21.50;92.40;;;;;;5056008;28;20037;-58
2021/07/13 04:12:07;;;;;;;13.80;12.50;;;21.50;92.40;;;;;;5055858;28;20044;-57
2021/07/13 04:14:35;;;;;;;14.07;12.68;;;21.50;92.20;;;;;;5056112;28;20052;-59
2021/07/13 04:17:00;;;;;;;14.80;12.13;;;21.50;92.20;;;;;;5055864;28;20033;-57
2021/07/13 04:19:26;;;;;;;12.38;11.05;;;21.50;92.40;;;;;;5055623;28;20043;-59
2021/07/13 04:21:51;;;;;;;13.52;12.10;;;21.50;92.30;;;;;;5055721;28;20131;-53
2021/07/13 04:24:17;;;;;;;15.35;12.32;;;21.60;92.20;;;;;;5055900;28;20033;-57
2021/07/13 04:26:43;;;;;;;14.40;11.98;;;21.60;92.00;;;;;;5055682;28;20036;-59
2021/07/13 04:29:08;;;;;;;12.60;11.18;;;21.60;92.00;;;;;;5055029;28;20036;-60
2021/07/13 04:31:34;;;;;;;12.25;11.05;;;21.70;91.90;;;;;;5055977;28;20164;-54
2021/07/13 04:34:07;;;;;;;13.02;11.73;;;21.70;91.90;;;;;;5055308;28;20327;-57
2021/07/13 04:36:33;;;;;;;13.18;11.75;;;21.80;91.90;;;;;;5055246;28;20388;-57
2021/07/13 04:38:59;;;;;;;13.13;11.73;;;21.80;91.70;;;;;;5049166;28;20034;-59
2021/07/13 04:41:24;;;;;;;13.98;12.57;;;21.90;91.80;;;;;;5046891;28;20041;-61
2021/07/13 04:43:50;;;;;;;16.45;14.75;;;21.90;91.70;;;;;;5055366;28;20037;-57
2021/07/13 04:46:15;;;;;;;14.88;13.45;;;22.00;91.40;;;;;;5053874;28;20115;-60
2021/07/13 04:48:41;;;;;;;15.80;14.18;;;22.00;91.30;;;;;;5056024;28;20037;-57
2021/07/13 04:51:06;;;;;;;14.98;13.30;;;22.10;91.20;;;;;;5041851;28;20514;-59
2021/07/13 04:53:32;;;;;;;14.95;13.45;;;22.20;90.90;;;;;;5055453;28;20060;-56
2021/07/13 04:55:58;;;;;;;14.35;12.85;;;22.20;90.80;;;;;;5055388;28;20029;-59
2021/07/13 04:58:23;;;;;;;16.30;12.88;;;22.30;90.70;;;;;;5055181;28;20087;-57
2021/07/13 05:00:49;;;;;;;13.63;12.10;;;22.30;90.50;;;;;;5054580;28;20064;-61
2021/07/13 05:03:14;;;;;;;15.75;12.90;;;22.40;90.30;;;;;;5055373;28;20044;-57
2021/07/13 05:05:40;;;;;;;14.82;12.95;;;22.50;90.20;;;;;;5054301;28;20037;-57
2021/07/13 05:08:05;;;;;;;15.10;12.77;;;22.60;89.90;;;;;;5054854;28;20555;-58
2021/07/13 05:10:31;;;;;;;13.65;12.25;;;22.60;89.50;;;;;;5054344;28;20123;-58
2021/07/13 05:12:57;;;;;;;12.27;10.93;;;22.70;89.40;;;;;;5054740;28;20562;-57
2021/07/13 05:15:22;;;;;;;14.30;10.57;;;22.80;89.10;;;;;;5055097;28;20039;-58
2021/07/13 05:17:48;;;;;;;12.23;11.07;;;22.60;89.20;;;;;;5054854;28;20522;-58
2021/07/13 05:20:14;;;;;;;15.90;14.20;;;22.80;89.00;;;;;;5054445;28;20391;-59
2021/07/13 05:22:42;;;;;;;17.75;13.98;;;22.90;88.60;;;;;;5053473;28;20040;-60
2021/07/13 05:25:10;;;;;;;14.07;12.57;;;23.00;88.20;;;;;;5054825;28;20037;-57
2021/07/13 05:27:40;;;;;;;13.52;12.00;;;23.10;88.00;;;;;;5056937;28;20120;-58
2021/07/13 05:30:10;;;;;;;12.43;11.13;;;23.10;87.90;;;;;;5056565;28;20473;-60
2021/07/13 05:32:36;;;;;;;11.65;10.52;;;23.20;87.80;;;;;;5055405;28;20095;-57
2021/07/13 05:35:03;;;;;;;13.75;12.48;;;23.30;87.50;;;;;;5054655;28;20053;-62
2021/07/13 05:37:28;;;;;;;14.02;11.70;;;23.20;86.90;;;;;;5052750;28;20033;-59
2021/07/13 05:39:55;;;;;;;22.33;17.95;;;23.30;86.90;;;;;;5048769;28;20128;-58
2021/07/13 05:42:22;;;;;;;17.77;14.90;;;23.30;86.80;;;;;;5048171;28;20044;-56
2021/07/13 05:44:47;;;;;;;14.68;12.48;;;23.40;86.70;;;;;;5054262;28;20518;-55
2021/07/13 05:47:13;;;;;;;14.75;12.40;;;23.50;86.50;;;;;;5053865;28;20044;-56
2021/07/13 05:49:40;;;;;;;12.00;10.80;;;23.50;86.30;;;;;;5052974;28;20120;-58
2021/07/13 05:52:06;;;;;;;11.52;10.10;;;23.50;86.00;;;;;;5054478;28;20060;-57
2021/07/13 05:54:31;;;;;;;13.25;10.52;;;23.60;86.10;;;;;;5054576;28;20087;-60
2021/07/13 05:56:57;;;;;;;13.57;10.18;;;23.60;86.00;;;;;;5054586;28;20024;-59
2021/07/13 05:59:22;;;;;;;12.90;10.15;;;23.70;85.80;;;;;;5054180;28;20033;-56
2021/07/13 06:01:48;;;;;;;12.25;8.90;;;23.60;85.80;;;;;;5053435;28;20056;-57
2021/07/13 06:04:13;;;;;;;10.75;8.55;;;23.50;85.70;;;;;;5054433;28;20052;-56
2021/07/13 06:06:39;;;;;;;9.95;8.93;;;23.60;85.70;;;;;;5034357;28;20124;-61
2021/07/13 06:09:04;;;;;;;9.40;8.60;;;23.70;85.60;;;;;;5054224;28;20047;-57
2021/07/13 06:11:30;;;;;;;10.98;9.88;;;23.70;85.50;;;;;;5053312;28;20041;-56
2021/07/13 06:13:55;;;;;;;9.23;8.32;;;23.80;85.60;;;;;;5049580;28;20032;-59
2021/07/13 06:16:21;;;;;;;9.55;7.97;;;23.80;85.50;;;;;;5053812;28;20124;-61
2021/07/13 06:18:46;;;;;;;13.38;8.73;;;23.80;85.60;;;;;;5051212;28;20079;-58
2021/07/13 06:21:12;;;;;;;9.10;8.18;;;23.80;84.90;;;;;;5048226;28;20044;-59
2021/07/13 06:23:38;;;;;;;11.90;9.15;;;23.70;85.00;;;;;;5044845;28;20033;-59
2021/07/13 06:26:03;;;;;;;11.23;8.88;;;23.80;85.00;;;;;;5052209;28;20045;-57
2021/07/13 06:28:29;;;;;;;10.15;8.40;;;23.80;85.10;;;;;;5053443;28;20052;-53
2021/07/13 06:30:54;;;;;;;10.65;8.60;;;23.80;85.00;;;;;;5052466;28;20072;-56
2021/07/13 06:33:20;;;;;;;10.13;8.60;;;23.90;84.60;;;;;;5051959;28;20029;-57
2021/07/13 06:35:47;;;;;;;11.02;8.25;;;24.00;84.20;;;;;;5053119;28;20068;-59
2021/07/13 06:38:14;;;;;;;12.43;8.15;;;23.90;84.00;;;;;;5051660;28;20033;-58
2021/07/13 06:40:39;;;;;;;11.05;9.38;;;23.80;84.60;;;;;;5055161;28;20068;-62
2021/07/13 06:43:05;;;;;;;10.73;8.38;;;23.80;84.50;;;;;;5050980;28;20127;-58
2021/07/13 06:45:31;;;;;;;9.25;8.15;;;23.70;84.70;;;;;;5053024;28;20400;-58
2021/07/13 06:47:56;;;;;;;11.73;8.70;;;23.80;84.50;;;;;;5052533;28;20420;-57
2021/07/13 06:50:23;;;;;;;8.55;7.55;;;24.00;84.00;;;;;;5048305;28;20404;-59
2021/07/13 06:52:50;;;;;;;9.80;7.75;;;24.10;84.00;;;;;;5054517;28;20044;-56
2021/07/13 06:55:16;;;;;;;7.80;7.10;;;24.20;83.60;;;;;;5052368;28;20040;-60
2021/07/13 06:57:41;;;;;;;8.07;7.25;;;24.40;82.90;;;;;;5029076;28;20032;-57
2021/07/13 07:00:09;;;;;;;8.73;6.97;;;24.50;81.90;;;;;;5049919;28;20041;-56
2021/07/13 07:02:34;;;;;;;7.85;7.10;;;24.60;81.70;;;;;;5052534;28;20032;-57
2021/07/13 07:05:00;;;;;;;8.05;7.10;;;24.70;81.80;;;;;;5036480;28;20366;-57
2021/07/13 07:07:26;;;;;;;9.13;7.32;;;24.80;81.50;;;;;;5038322;28;20121;-54
2021/07/13 07:09:51;;;;;;;8.27;7.47;;;24.90;81.30;;;;;;5033817;28;20037;-59
2021/07/13 07:12:17;;;;;;;7.95;7.18;;;25.00;81.50;;;;;;5036830;28;20033;-58
2021/07/13 07:14:42;;;;;;;7.50;6.80;;;25.10;81.40;;;;;;5034222;28;20546;-61
2021/07/13 07:17:08;;;;;;;7.75;7.00;;;25.10;81.40;;;;;;5036941;28;20480;-55
2021/07/13 07:19:34;;;;;;;9.60;6.88;;;25.10;81.30;;;;;;5031420;28;20488;-53
2021/07/13 07:21:59;;;;;;;7.10;6.35;;;25.20;80.90;;;;;;5033643;28;20025;-57
2021/07/13 07:24:25;;;;;;;8.40;6.07;;;25.10;80.90;;;;;;5033983;28;20045;-56
2021/07/13 07:26:50;;;;;;;7.18;6.55;;;25.10;81.10;;;;;;5033970;28;20095;-59
2021/07/13 07:29:16;;;;;;;6.88;6.28;;;25.10;81.20;;;;;;5031938;28;20392;-60
2021/07/13 07:31:42;;;;;;;8.45;6.57;;;25.10;81.10;;;;;;5038683;28;20039;-56
2021/07/13 07:34:07;;;;;;;9.30;7.38;;;25.10;81.20;;;;;;5043857;28;20033;-59
2021/07/13 07:36:33;;;;;;;6.75;6.15;;;25.00;81.10;;;;;;5032297;28;20109;-58
2021/07/13 07:38:59;;;;;;;9.27;6.43;;;25.00;80.60;;;;;;5032723;28;20472;-57
2021/07/13 07:41:24;;;;;;;6.97;5.88;;;25.00;80.40;;;;;;5050021;28;20171;-57
2021/07/13 07:43:50;;;;;;;6.75;6.05;;;25.10;80.20;;;;;;5051935;28;20044;-58
2021/07/13 07:46:16;;;;;;;6.55;5.70;;;25.30;80.20;;;;;;5049462;28;20048;-58
2021/07/13 07:48:42;;;;;;;8.35;5.97;;;25.30;79.00;;;;;;5031527;28;20029;-57
2021/07/13 07:51:08;;;;;;;7.75;6.63;;;25.40;78.40;;;;;;5031176;28;20040;-59
2021/07/13 07:53:34;;;;;;;6.88;5.60;;;25.50;78.50;;;;;;5017129;28;20037;-59
2021/07/13 07:56:00;;;;;;;7.20;6.50;;;25.50;78.00;;;;;;5034486;28;20032;-60
2021/07/13 07:58:26;;;;;;;8.00;6.03;;;25.60;77.90;;;;;;5033726;28;20132;-61
2021/07/13 08:00:53;;;;;;;7.45;6.00;;;25.60;77.90;;;;;;5016605;28;20507;-65
2021/07/13 08:03:19;;;;;;;6.85;6.05;;;25.50;77.50;;;;;;5035090;28;20041;-58
2021/07/13 08:05:44;;;;;;;7.68;6.00;;;25.60;77.90;;;;;;5017457;28;20080;-57
2021/07/13 08:08:10;;;;;;;17.42;8.23;;;25.70;77.70;;;;;;5031573;28;20393;-61
2021/07/13 08:10:36;;;;;;;25.35;10.07;;;25.90;77.80;;;;;;5031697;28;20460;-59
2021/07/13 08:13:04;;;;;;;12.55;6.22;;;26.20;77.50;;;;;;5019901;28;20562;-62
2021/07/13 08:15:30;;;;;;;6.78;6.13;;;26.30;76.60;;;;;;5034511;28;20396;-59
2021/07/13 08:17:56;;;;;;;7.15;6.45;;;26.40;76.70;;;;;;5035073;28;20128;-58
2021/07/13 08:20:22;;;;;;;8.07;6.57;;;26.50;75.30;;;;;;5044242;28;20057;-55
2021/07/13 08:22:48;;;;;;;7.00;6.30;;;26.60;74.20;;;;;;5035682;28;20071;-58
2021/07/13 08:25:15;;;;;;;7.38;6.07;;;26.60;72.30;;;;;;5036124;28;20496;-55
2021/07/13 08:27:41;;;;;;;7.05;6.13;;;26.60;72.10;;;;;;5030687;28;20109;-57
2021/07/13 08:30:07;;;;;;;7.78;5.88;;;26.60;72.40;;;;;;5036361;28;20037;-60
2021/07/13 08:32:33;;;;;;;6.43;5.93;;;26.60;72.00;;;;;;5039002;28;20033;-58
2021/07/13 08:34:58;;;;;;;83.43;16.55;;;26.60;72.00;;;;;;5052016;28;20033;-61
2021/07/13 08:37:25;;;;;;;48.38;11.98;;;26.50;72.30;;;;;;5049707;28;20029;-57
2021/07/13 08:39:51;;;;;;;13.48;7.95;;;26.40;72.80;;;;;;5046857;28;20507;-56
2021/07/13 08:42:17;;;;;;;21.88;9.60;;;26.40;73.40;;;;;;5035460;28;20036;-57
2021/07/13 08:44:43;;;;;;;10.00;7.20;;;26.30;73.40;;;;;;5051508;28;20131;-58
2021/07/13 08:47:15;;;;;;;6.55;5.85;;;26.30;73.40;;;;;;5052128;28;20052;-60
2021/07/13 08:49:42;;;;;;;7.93;6.57;;;26.30;73.40;;;;;;5052285;28;20063;-61
2021/07/13 08:52:07;;;;;;;7.40;5.55;;;26.20;73.50;;;;;;5037469;28;20028;-59
2021/07/13 08:54:36;;;;;;;8.88;6.35;;;26.30;73.70;;;;;;5054714;28;20489;-58
2021/07/13 08:57:02;;;;;;;7.63;6.85;;;26.30;73.80;;;;;;5053929;28;20021;-57
2021/07/13 08:59:28;;;;;;;79.22;17.70;;;26.40;73.90;;;;;;5055447;28;20083;-59
2021/07/13 09:01:54;;;;;;;63.17;16.90;;;26.40;74.10;;;;;;5056304;28;20036;-57
2021/07/13 09:04:30;;;;;;;39.22;10.30;;;26.50;73.90;;;;;;5037964;28;20060;-56
2021/07/13 09:07:01;;;;;;;28.02;11.23;;;26.60;73.60;;;;;;5055096;28;20037;-57
2021/07/13 09:09:28;;;;;;;17.83;8.43;;;26.60;73.00;;;;;;5041092;28;20033;-60
2021/07/13 09:12:06;;;;;;;9.18;6.75;;;26.80;72.60;;;;;;5055141;28;20120;-59
2021/07/13 09:14:47;;;;;;;63.53;16.27;;;27.10;71.60;;;;;;5055066;28;20029;-58
2021/07/13 09:17:36;;;;;;;33.47;13.13;;;27.30;70.60;;;;;;5055159;28;20033;-59
2021/07/13 09:20:09;;;;;;;13.45;7.20;;;27.50;70.20;;;;;;5044485;28;20094;-56
2021/07/13 09:22:37;;;;;;;7.38;5.75;;;27.60;69.80;;;;;;5041221;28;20033;-57
2021/07/13 09:25:23;;;;;;;6.63;5.03;;;27.80;69.30;;;;;;5056070;28;20037;-54
2021/07/13 09:28:21;;;;;;;80.05;18.88;;;27.90;69.00;;;;;;5055864;28;20418;-58
2021/07/13 09:30:46;;;;;;;44.80;12.55;;;27.80;68.70;;;;;;5055659;28;20073;-54
2021/07/13 09:33:16;;;;;;;28.58;8.63;;;27.60;69.10;;;;;;5056368;28;20025;-57
2021/07/13 09:36:08;;;;;;;22.05;8.02;;;27.60;69.50;;;;;;5058553;28;20485;-58
2021/07/13 09:38:36;;;;;;;19.17;8.25;;;27.50;70.00;;;;;;5044320;28;20075;-57
2021/07/13 09:41:10;;;;;;;54.95;13.77;;;27.50;70.30;;;;;;5049178;28;20099;-58
2021/07/13 09:43:43;;;;;;;10.93;5.93;;;27.40;70.70;;;;;;5042951;28;20060;-56
2021/07/13 09:46:44;;;;;;;73.38;14.77;;;27.30;71.30;;;;;;5055891;28;20079;-54
2021/07/13 09:49:25;;;;;;;42.03;12.60;;;26.90;71.40;;;;;;5060880;28;20280;-56
2021/07/13 09:52:02;;;;;;;35.17;10.27;;;26.80;72.30;;;;;;5065586;28;20029;-60
2021/07/13 09:54:29;;;;;;;21.80;7.57;;;26.80;72.60;;;;;;5059140;28;20056;-56
2021/07/13 09:56:55;;;;;;;8.68;5.13;;;26.80;72.90;;;;;;5055931;28;20480;-58
2021/07/13 09:59:21;;;;;;;66.60;14.40;;;26.80;72.80;;;;;;5054793;28;20048;-58
2021/07/13 10:01:49;;;;;;;100.00;19.75;;;26.80;73.70;;;;;;5055361;28;20362;-56
2021/07/13 10:04:14;;;;;;;101.85;20.75;;;26.50;73.90;;;;;;5036083;28;20036;-57
2021/07/13 10:06:40;;;;;;;44.03;14.10;;;26.50;74.60;;;;;;5054487;28;20039;-58
2021/07/13 10:09:13;;;;;;;76.93;19.95;;;26.50;75.10;;;;;;5054868;28;20383;-56
2021/07/13 10:11:40;;;;;;;87.40;19.45;;;26.60;75.20;;;;;;5054974;28;20037;-59
2021/07/13 10:14:09;;;;;;;32.20;9.57;;;26.80;75.50;;;;;;5054753;28;20037;-55
2021/07/13 10:16:35;;;;;;;27.27;7.82;;;26.90;75.00;;;;;;5056174;28;20116;-56
2021/07/13 10:19:03;;;;;;;69.32;15.52;;;27.10;74.80;;;;;;5055486;28;20181;-57
2021/07/13 10:21:30;;;;;;;9.23;5.50;;;27.50;73.80;;;;;;5047794;28;20132;-53
2021/07/13 10:23:56;;;;;;;8.23;5.63;;;27.80;72.50;;;;;;5046586;28;20041;-59
2021/07/13 10:27:02;;;;;;;4.82;4.40;;;27.90;72.30;;;;;;5054431;28;20443;-58
2021/07/13 10:29:33;;;;;;;6.18;4.55;;;27.90;72.60;;;;;;5031631;28;20029;-58
2021/07/13 10:32:04;;;;;;;7.15;5.10;;;28.20;72.60;;;;;;5031485;28;20029;-58
2021/07/13 10:35:01;;;;;;;9.93;5.00;;;28.10;71.70;;;;;;5044365;28;20036;-58
2021/07/13 10:37:42;;;;;;;12.32;5.28;;;28.30;71.50;;;;;;5038623;28;20044;-57
2021/07/13 10:40:09;;;;;;;22.52;6.93;;;28.30;71.40;;;;;;5023716;28;20029;-58
2021/07/13 10:42:41;;;;;;;48.58;12.32;;;28.30;71.20;;;;;;5036239;28;20048;-58
2021/07/13 10:45:17;;;;;;;5.18;4.60;;;28.20;71.10;;;;;;5053255;28;20036;-59
2021/07/13 10:48:00;;;;;;;4.70;4.20;;;28.30;70.40;;;;;;5053911;28;20025;-57
2021/07/13 10:50:29;;;;;;;18.25;5.05;;;28.60;69.20;;;;;;5051921;28;20216;-58
2021/07/13 10:52:57;;;;;;;77.97;16.63;;;28.60;68.90;;;;;;5039911;28;20033;-57
2021/07/13 10:55:32;;;;;;;35.28;9.48;;;28.70;69.30;;;;;;5040221;28;20473;-60
2021/07/13 10:58:10;;;;;;;96.55;17.77;;;28.70;68.70;;;;;;5054608;28;20093;-60
2021/07/13 11:00:47;;;;;;;19.50;6.55;;;28.70;68.20;;;;;;5041387;28;20036;-59
2021/07/13 11:03:31;;;;;;;4.85;4.32;;;28.90;68.20;;;;;;5055242;28;20021;-60
2021/07/13 11:05:56;;;;;;;;;;;29.10;67.60;;;;;;5054460;28;20020;-60
2021/07/13 11:11:16;;;;;;;7.97;4.20;;;29.60;66.40;;;;;;5053236;28;20057;-58
2021/07/13 11:14:05;;;;;;;4.93;3.95;;;29.70;67.00;;;;;;5035658;28;20028;-56
2021/07/13 11:16:37;;;;;;;4.80;3.95;;;29.80;66.80;;;;;;5053669;28;20116;-54
2021/07/13 11:19:12;;;;;;;5.30;4.28;;;29.70;66.40;;;;;;5053801;28;20033;-59
2021/07/13 11:21:41;;;;;;;10.57;4.70;;;29.70;66.60;;;;;;5046621;28;20048;-56
2021/07/13 11:24:06;;;;;;;10.57;6.85;;;29.60;67.10;;;;;;5053165;28;20139;-58
2021/07/13 11:26:34;;;;;;;6.13;5.00;;;29.50;67.50;;;;;;5052544;28;20084;-58
2021/07/13 11:29:03;;;;;;;14.80;5.38;;;29.30;68.20;;;;;;5049084;28;20037;-60
2021/07/13 11:31:42;;;;;;;5.93;4.88;;;29.20;68.80;;;;;;5052181;28;20179;-57
2021/07/13 11:34:14;;;;;;;8.32;5.13;;;29.00;68.90;;;;;;5045855;28;20071;-56
2021/07/13 11:36:49;;;;;;;7.70;4.90;;;29.00;69.10;;;;;;5039486;28;20033;-57
2021/07/13 11:39:22;;;;;;;9.60;5.28;;;28.80;69.10;;;;;;5053004;28;20476;-60
2021/07/13 11:41:49;;;;;;;8.07;6.28;;;28.70;69.50;;;;;;5048771;28;20032;-58
2021/07/13 11:44:15;;;;;;;8.23;5.57;;;28.80;69.70;;;;;;5042165;28;20035;-60
2021/07/13 11:46:42;;;;;;;8.18;5.65;;;28.80;69.80;;;;;;5048551;28;20033;-57
2021/07/13 11:49:17;;;;;;;5.72;5.22;;;28.60;70.10;;;;;;5052647;28;20044;-56
2021/07/13 11:51:56;;;;;;;6.18;5.43;;;28.60;70.50;;;;;;5050514;28;20516;-56
2021/07/13 11:54:25;;;;;;;5.80;5.30;;;28.60;70.70;;;;;;5045635;28;20049;-57
2021/07/13 11:56:53;;;;;;;5.38;4.88;;;28.50;70.80;;;;;;5052649;28;20036;-58
2021/07/13 11:59:21;;;;;;;6.53;5.88;;;28.40;71.20;;;;;;5052176;28;20365;-57
2021/07/13 12:01:53;;;;;;;6.22;5.72;;;28.40;71.70;;;;;;5056058;28;20033;-55
2021/07/13 12:04:23;;;;;;;6.55;5.93;;;28.30;71.50;;;;;;5045193;28;20493;-57
2021/07/13 12:06:51;;;;;;;17.52;15.10;;;28.20;71.30;;;;;;5047020;28;20037;-56
2021/07/13 12:09:23;;;;;;;12.13;7.82;;;28.10;71.40;;;;;;5052444;28;20037;-57
2021/07/13 12:11:51;;;;;;;10.93;6.97;;;28.10;71.10;;;;;;5047709;28;20023;-58
2021/07/13 12:14:19;;;;;;;6.97;6.22;;;28.00;71.60;;;;;;5053044;28;20033;-57
2021/07/13 12:16:45;;;;;;;8.38;6.90;;;28.00;71.90;;;;;;5055507;28;20033;-58
2021/07/13 12:19:16;;;;;;;7.10;6.40;;;28.00;72.10;;;;;;5050064;28;20033;-57
2021/07/13 12:21:47;;;;;;;10.23;9.18;;;28.00;72.00;;;;;;5051780;28;20041;-55
2021/07/13 12:24:17;;;;;;;9.10;7.82;;;28.00;72.10;;;;;;5051863;28;20100;-57
2021/07/13 12:26:53;;;;;;;9.07;8.07;;;28.00;72.30;;;;;;5051862;28;20547;-53
2021/07/13 12:29:24;;;;;;;7.82;7.05;;;28.00;72.40;;;;;;5054186;28;20048;-55
2021/07/13 12:31:51;;;;;;;8.63;6.80;;;28.20;72.60;;;;;;5046270;28;20388;-58
2021/07/13 12:34:19;;;;;;;8.50;7.25;;;28.20;72.50;;;;;;5053622;28;20040;-58
2021/07/13 12:36:45;;;;;;;10.13;8.00;;;28.20;72.40;;;;;;5051067;28;20029;-59
2021/07/13 12:39:15;;;;;;;7.93;6.97;;;28.10;71.80;;;;;;5055148;28;20029;-57
2021/07/13 12:41:41;;;;;;;9.48;6.65;;;28.10;72.10;;;;;;5055356;28;20025;-59
2021/07/13 12:44:30;;;;;;;7.40;6.70;;;28.10;71.40;;;;;;5055422;28;20607;-58
2021/07/13 12:47:41;;;;;;;7.93;7.22;;;28.10;71.20;;;;;;5024247;28;20063;-56